Terminal Aerodrome Forecast
Issued by NWS

Home | Current Version | Previous Version | Graphics & Text | Print | Product List | Glossary Off
Versions: 1 2 3 4 5 6 7 8 9 10 11 12 13 14 15 16 17 18 19 20

000
FTUS43 KDDC 221720
TAFGCK
TAF
KGCK 221720Z 2218/2318 18015G22KT P6SM SCT100
     FM222300 17012KT P6SM VCTS BKN050CB
     FM230200 17010KT P6SM FEW100
     FM231000 17005KT 1SM BR OVC003=

USA.gov is the U.S. government's official web portal to all federal, state and local government web resources and services.